createdAt,value
2017-05-17T00:00:42.368Z,1023.2
2017-05-17T00:01:42.392Z,1023.19
2017-05-17T00:02:42.416Z,1023.15
2017-05-17T00:03:42.440Z,1023.18
2017-05-17T00:04:42.465Z,1023.21
2017-05-17T00:05:42.490Z,1023.19
2017-05-17T00:06:42.513Z,1023.2
2017-05-17T00:07:42.537Z,1023.17
2017-05-17T00:08:42.562Z,1023.16
2017-05-17T00:09:42.587Z,1023.15
2017-05-17T00:10:42.611Z,1023.18
2017-05-17T00:11:42.636Z,1023.15
2017-05-17T00:12:42.661Z,1023.14
2017-05-17T00:13:42.684Z,1023.11
2017-05-17T00:15:42.734Z,1023.11
2017-05-17T00:16:42.757Z,1023.08
2017-05-17T00:17:42.782Z,1023.11
2017-05-17T00:18:42.806Z,1023.08
2017-05-17T00:19:42.833Z,1023.11
2017-05-17T00:20:42.856Z,1023.11
2017-05-17T00:21:42.880Z,1023.06
2017-05-17T00:22:42.904Z,1023.05
2017-05-17T00:23:42.929Z,1023.04
2017-05-17T00:24:42.957Z,1023.04
2017-05-17T00:25:42.977Z,1023.03
2017-05-17T00:26:43.002Z,1022.97
2017-05-17T00:27:43.032Z,1022.99
2017-05-17T00:28:43.050Z,1022.97
2017-05-17T00:29:43.074Z,1022.95
2017-05-17T00:31:43.124Z,1022.95
2017-05-17T00:32:43.147Z,1022.94
2017-05-17T00:33:43.172Z,1022.9
2017-05-17T00:34:43.196Z,1022.92
2017-05-17T00:35:43.220Z,1022.92
2017-05-17T00:36:43.245Z,1022.85
2017-05-17T00:37:43.270Z,1022.9
2017-05-17T00:38:43.293Z,1022.87
2017-05-17T00:39:43.317Z,1022.87
2017-05-17T00:40:43.342Z,1022.88
2017-05-17T00:41:43.367Z,1022.89
2017-05-17T00:42:43.391Z,1022.88
2017-05-17T00:43:43.415Z,1022.92
2017-05-17T00:44:43.439Z,1022.89
2017-05-17T00:45:43.464Z,1022.88
2017-05-17T00:47:43.512Z,1022.9
2017-05-17T00:48:43.538Z,1022.91
2017-05-17T00:49:43.561Z,1022.9
2017-05-17T00:50:43.585Z,1022.96
2017-05-17T00:51:43.609Z,1022.95
2017-05-17T00:52:43.633Z,1022.94
2017-05-17T00:53:43.658Z,1022.92
2017-05-17T00:54:43.681Z,1022.91
2017-05-17T00:55:43.707Z,1022.95
2017-05-17T00:56:43.782Z,1022.91
2017-05-17T00:57:43.754Z,1022.9
2017-05-17T00:58:43.779Z,1022.88
2017-05-17T00:59:43.803Z,1022.96
2017-05-17T01:00:43.828Z,1022.95
2017-05-17T01:01:43.852Z,1022.93
2017-05-17T01:03:43.901Z,1022.92
2017-05-17T01:04:43.925Z,1022.91
2017-05-17T01:05:43.949Z,1022.9
2017-05-17T01:06:43.974Z,1022.94
2017-05-17T01:07:43.998Z,1022.85
2017-05-17T01:08:44.022Z,1022.89
2017-05-17T01:09:44.046Z,1022.8
2017-05-17T01:10:44.070Z,1022.85
2017-05-17T01:11:44.097Z,1022.81
2017-05-17T01:12:44.118Z,1022.8
2017-05-17T01:13:44.143Z,1022.79
2017-05-17T01:14:44.168Z,1022.79
2017-05-17T01:15:44.193Z,1022.79
2017-05-17T01:16:44.218Z,1022.81
2017-05-17T01:18:44.266Z,1022.75
2017-05-17T01:19:44.290Z,1022.78
2017-05-17T01:20:44.314Z,1022.77
2017-05-17T01:21:44.339Z,1022.81
2017-05-17T01:22:44.364Z,1022.75
2017-05-17T01:23:44.388Z,1022.74
2017-05-17T01:24:44.413Z,1022.75
2017-05-17T01:25:44.436Z,1022.74
2017-05-17T01:26:44.461Z,1022.72
2017-05-17T01:27:44.485Z,1022.67
2017-05-17T01:28:44.509Z,1022.7
2017-05-17T01:29:44.534Z,1022.67
2017-05-17T01:30:44.558Z,1022.7
2017-05-17T01:31:44.582Z,1022.65
2017-05-17T01:32:44.606Z,1022.65
2017-05-17T01:33:44.631Z,1022.64
2017-05-17T01:34:44.655Z,1022.62
2017-05-17T01:35:44.679Z,1022.57
2017-05-17T01:36:44.704Z,1022.6
2017-05-17T01:37:44.727Z,1022.58
2017-05-17T01:38:44.752Z,1022.53
2017-05-17T01:39:44.776Z,1022.5
2017-05-17T01:40:44.801Z,1022.53
2017-05-17T01:41:44.824Z,1022.51
2017-05-17T01:42:44.849Z,1022.46
2017-05-17T01:43:44.874Z,1022.49
2017-05-17T01:44:44.898Z,1022.46
2017-05-17T01:45:44.921Z,1022.47
2017-05-17T01:46:44.946Z,1022.5
2017-05-17T01:47:44.970Z,1022.46
2017-05-17T01:48:44.994Z,1022.44
2017-05-17T01:50:45.043Z,1022.46
2017-05-17T01:51:45.068Z,1022.49
2017-05-17T01:52:45.091Z,1022.47
2017-05-17T01:53:45.166Z,1022.42
2017-05-17T01:54:45.140Z,1022.41
2017-05-17T01:55:45.164Z,1022.42
2017-05-17T01:56:45.189Z,1022.44
2017-05-17T01:57:45.213Z,1022.42
2017-05-17T01:58:45.237Z,1022.37
2017-05-17T01:59:45.260Z,1022.39
2017-05-17T02:00:45.285Z,1022.35
2017-05-17T02:01:45.310Z,1022.33
2017-05-17T02:02:45.336Z,1022.31
2017-05-17T02:03:45.357Z,1022.31
2017-05-17T02:04:45.381Z,1022.32
2017-05-17T02:06:45.431Z,1022.3
2017-05-17T02:07:45.454Z,1022.32
2017-05-17T02:08:45.478Z,1022.33
2017-05-17T02:09:45.503Z,1022.29
2017-05-17T02:10:45.526Z,1022.31
2017-05-17T02:11:45.550Z,1022.28
2017-05-17T02:12:45.575Z,1022.31
2017-05-17T02:13:45.598Z,1022.29
2017-05-17T02:14:45.622Z,1022.29
2017-05-17T02:15:45.647Z,1022.3
2017-05-17T02:16:45.670Z,1022.32
2017-05-17T02:17:45.696Z,1022.32
2017-05-17T02:18:45.719Z,1022.32
2017-05-17T02:19:45.744Z,1022.31
2017-05-17T02:20:45.768Z,1022.3
2017-05-17T02:22:45.816Z,1022.34
2017-05-17T02:23:45.840Z,1022.3
2017-05-17T02:24:45.865Z,1022.32
2017-05-17T02:25:45.888Z,1022.32
2017-05-17T02:26:45.912Z,1022.32
2017-05-17T02:27:45.937Z,1022.26
2017-05-17T02:28:45.962Z,1022.28
2017-05-17T02:29:45.985Z,1022.27
2017-05-17T02:30:46.009Z,1022.27
2017-05-17T02:31:46.034Z,1022.23
2017-05-17T02:32:46.057Z,1022.26
2017-05-17T02:33:46.081Z,1022.29
2017-05-17T02:34:46.106Z,1022.28
2017-05-17T02:35:46.131Z,1022.23
2017-05-17T02:36:46.154Z,1022.23
2017-05-17T02:38:46.203Z,1022.24
2017-05-17T02:39:46.228Z,1022.22
2017-05-17T02:40:46.250Z,1022.22
2017-05-17T02:41:46.275Z,1022.22
2017-05-17T02:42:46.300Z,1022.21
2017-05-17T02:43:46.323Z,1022.2
2017-05-17T02:44:46.346Z,1022.22
2017-05-17T02:45:46.371Z,1022.19
2017-05-17T02:46:46.395Z,1022.2
2017-05-17T02:47:46.419Z,1022.21
2017-05-17T02:48:46.443Z,1022.17
2017-05-17T02:49:46.467Z,1022.16
2017-05-17T02:50:46.491Z,1022.18
2017-05-17T02:51:46.516Z,1022.19
2017-05-17T02:53:46.564Z,1022.15
2017-05-17T02:54:46.588Z,1022.18
2017-05-17T02:55:46.612Z,1022.16
2017-05-17T02:56:46.637Z,1022.15
2017-05-17T02:57:46.661Z,1022.17
2017-05-17T02:58:46.685Z,1022.14
2017-05-17T02:59:46.709Z,1022.14
2017-05-17T03:00:46.733Z,1022.13
2017-05-17T03:01:46.756Z,1022.14
2017-05-17T03:02:46.830Z,1022.16
2017-05-17T03:03:46.805Z,1022.12
2017-05-17T03:04:46.830Z,1022.13
2017-05-17T03:05:46.853Z,1022.14
2017-05-17T03:06:46.877Z,1022.16
2017-05-17T03:07:46.902Z,1022.13
2017-05-17T03:08:46.926Z,1022.1
2017-05-17T03:09:46.949Z,1022.1
2017-05-17T03:10:46.973Z,1022.1
2017-05-17T03:11:46.998Z,1022.09
2017-05-17T03:12:47.020Z,1022.09
2017-05-17T03:13:47.045Z,1022.09
2017-05-17T03:14:47.069Z,1022.09
2017-05-17T03:15:47.094Z,1022.12
2017-05-17T03:16:47.116Z,1022.12
2017-05-17T03:17:47.141Z,1022.07
2017-05-17T03:18:47.166Z,1022.11
2017-05-17T03:19:47.189Z,1022.05
2017-05-17T03:20:47.213Z,1022.08
2017-05-17T03:21:47.237Z,1022.03
2017-05-17T03:22:47.262Z,1022.05
2017-05-17T03:23:47.288Z,1022.05
2017-05-17T03:25:47.333Z,1022.05
2017-05-17T03:26:47.364Z,1022.07
2017-05-17T03:27:47.381Z,1022.09
2017-05-17T03:28:47.405Z,1022.05
2017-05-17T03:29:47.430Z,1022.07
2017-05-17T03:30:47.453Z,1022.02
2017-05-17T03:31:47.476Z,1022.07
2017-05-17T03:32:47.501Z,1022.05
2017-05-17T03:33:47.527Z,1022.09
2017-05-17T03:34:47.548Z,1022.06
2017-05-17T03:35:47.572Z,1022.08
2017-05-17T03:36:47.597Z,1022.06
2017-05-17T03:37:47.621Z,1022.08
2017-05-17T03:38:47.644Z,1022.11
2017-05-17T03:39:47.668Z,1022.13
2017-05-17T03:41:47.717Z,1022.08
2017-05-17T03:42:47.740Z,1022.07
2017-05-17T03:43:47.764Z,1022.1
2017-05-17T03:44:47.789Z,1022.08
2017-05-17T03:45:47.812Z,1022.08
2017-05-17T03:46:47.836Z,1022.08
2017-05-17T03:47:47.860Z,1022.04
2017-05-17T03:48:47.887Z,1022.05
2017-05-17T03:49:47.908Z,1022.04
2017-05-17T03:50:47.939Z,1022
2017-05-17T03:51:47.956Z,1022.05
2017-05-17T03:52:47.981Z,1022.03
2017-05-17T03:53:48.004Z,1022.06
2017-05-17T03:54:48.029Z,1022.04
2017-05-17T03:55:48.053Z,1022.02
2017-05-17T03:57:48.101Z,1022.03
2017-05-17T03:58:48.124Z,1022.01
2017-05-17T03:59:48.149Z,1021.99
2017-05-17T04:00:48.172Z,1022.01
2017-05-17T04:01:48.197Z,1021.98
2017-05-17T04:02:48.220Z,1021.95
2017-05-17T04:03:48.245Z,1021.96
2017-05-17T04:04:48.268Z,1021.91
2017-05-17T04:05:48.292Z,1021.92
2017-05-17T04:06:48.316Z,1021.92
2017-05-17T04:07:48.340Z,1021.94
2017-05-17T04:08:48.365Z,1021.91
2017-05-17T04:09:48.388Z,1021.9
2017-05-17T04:10:48.413Z,1021.93
2017-05-17T04:11:48.436Z,1021.92
2017-05-17T04:13:48.485Z,1021.97
2017-05-17T04:14:48.509Z,1021.96
2017-05-17T04:15:48.532Z,1021.95
2017-05-17T04:16:48.557Z,1021.94
2017-05-17T04:17:48.582Z,1021.94
2017-05-17T04:18:48.605Z,1021.97
2017-05-17T04:19:48.630Z,1021.97
2017-05-17T04:20:48.654Z,1021.92
2017-05-17T04:21:48.679Z,1021.94
2017-05-17T04:22:48.702Z,1021.93
2017-05-17T04:23:48.728Z,1021.95
2017-05-17T04:24:48.752Z,1021.94
2017-05-17T04:25:48.776Z,1021.85
2017-05-17T04:26:48.801Z,1021.87
2017-05-17T04:28:48.850Z,1021.88
2017-05-17T04:29:48.874Z,1021.84
2017-05-17T04:30:48.899Z,1021.81
2017-05-17T04:31:48.924Z,1021.84
2017-05-17T04:32:48.949Z,1021.82
2017-05-17T04:33:48.972Z,1021.8
2017-05-17T04:34:48.997Z,1021.85
2017-05-17T04:35:49.021Z,1021.78
2017-05-17T04:36:49.045Z,1021.78
2017-05-17T04:37:49.070Z,1021.71
2017-05-17T04:38:49.095Z,1021.75
2017-05-17T04:39:49.120Z,1021.72
2017-05-17T04:40:49.146Z,1021.73
2017-05-17T04:41:49.169Z,1021.76
2017-05-17T04:42:49.194Z,1021.82
2017-05-17T04:43:49.218Z,1021.92
2017-05-17T04:44:49.243Z,1022.02
2017-05-17T04:45:49.268Z,1022.02
2017-05-17T04:46:49.296Z,1022.05
2017-05-17T04:47:49.318Z,1022.01
2017-05-17T04:48:49.343Z,1022.09
2017-05-17T04:49:49.375Z,1022.06
2017-05-17T04:50:49.396Z,1022.06
2017-05-17T04:51:49.421Z,1022.05
2017-05-17T04:52:49.448Z,1022
2017-05-17T04:53:49.476Z,1021.97
2017-05-17T04:54:49.504Z,1021.91
2017-05-17T04:55:49.531Z,1021.91
2017-05-17T04:56:49.559Z,1021.95
2017-05-17T04:57:49.588Z,1021.98
2017-05-17T04:58:49.615Z,1021.95
2017-05-17T05:00:49.674Z,1022
2017-05-17T05:01:49.703Z,1022.06
2017-05-17T05:02:49.732Z,1022.03
2017-05-17T05:03:49.763Z,1022.09
2017-05-17T05:04:49.793Z,1022.12
2017-05-17T05:05:49.824Z,1022.14
2017-05-17T05:06:49.854Z,1022.16
2017-05-17T05:07:49.885Z,1022.18
2017-05-17T05:08:49.916Z,1022.17
2017-05-17T05:09:49.947Z,1022.18
2017-05-17T05:10:49.979Z,1022.22
2017-05-17T05:11:50.011Z,1022.23
2017-05-17T05:12:50.044Z,1022.28
2017-05-17T05:13:50.075Z,1022.25
2017-05-17T05:14:50.108Z,1022.29
2017-05-17T05:16:50.174Z,1022.35
2017-05-17T05:17:50.206Z,1022.38
2017-05-17T05:18:50.240Z,1022.44
2017-05-17T05:19:50.275Z,1022.48
2017-05-17T05:20:50.306Z,1022.48
2017-05-17T05:21:50.340Z,1022.49
2017-05-17T05:22:50.374Z,1022.3
2017-05-17T05:23:50.408Z,1022.43
2017-05-17T05:24:50.443Z,1022.43
2017-05-17T05:25:50.475Z,1022.46
2017-05-17T05:26:50.510Z,1022.42
2017-05-17T05:27:50.545Z,1022.43
2017-05-17T05:28:50.578Z,1022.43
2017-05-17T05:29:50.613Z,1022.46
2017-05-17T05:30:50.649Z,1022.45
2017-05-17T05:32:50.718Z,1022.45
2017-05-17T05:33:50.754Z,1022.45
2017-05-17T05:34:50.789Z,1022.44
2017-05-17T05:35:50.824Z,1022.4
2017-05-17T05:36:50.861Z,1022.39
2017-05-17T05:37:50.897Z,1022.43
2017-05-17T05:38:50.932Z,1022.41
2017-05-17T05:39:50.968Z,1022.38
2017-05-17T05:40:51.004Z,1022.37
2017-05-17T05:41:51.041Z,1022.38
2017-05-17T05:42:51.076Z,1022.4
2017-05-17T05:43:51.113Z,1022.41
2017-05-17T05:44:51.149Z,1022.41
2017-05-17T05:45:51.187Z,1022.42
2017-05-17T05:46:51.222Z,1022.4
2017-05-17T05:48:51.296Z,1022.45
2017-05-17T05:49:51.333Z,1022.41
2017-05-17T05:50:51.370Z,1022.45
2017-05-17T05:51:51.407Z,1022.44
2017-05-17T05:52:51.444Z,1022.4
2017-05-17T05:53:51.480Z,1022.38
2017-05-17T05:54:51.517Z,1022.42
2017-05-17T05:55:51.555Z,1022.43
2017-05-17T05:56:51.592Z,1022.45
2017-05-17T05:57:51.629Z,1022.47
2017-05-17T05:58:51.667Z,1022.47
2017-05-17T05:59:51.704Z,1022.47
2017-05-17T06:00:51.742Z,1022.38
2017-05-17T06:01:51.779Z,1022.43
2017-05-17T06:03:51.854Z,1022.54
2017-05-17T06:04:51.891Z,1022.61
2017-05-17T06:05:51.929Z,1022.68
2017-05-17T06:06:51.966Z,1022.73
2017-05-17T06:07:52.004Z,1022.83
2017-05-17T06:08:52.041Z,1022.81
2017-05-17T06:09:52.079Z,1022.82
2017-05-17T06:10:52.116Z,1022.85
2017-05-17T06:11:52.154Z,1022.8
2017-05-17T06:12:52.192Z,1022.86
2017-05-17T06:13:52.230Z,1022.91
2017-05-17T06:14:52.269Z,1022.89
2017-05-17T06:15:52.305Z,1022.86
2017-05-17T06:16:52.345Z,1022.9
2017-05-17T06:17:52.383Z,1022.85
2017-05-17T06:18:52.420Z,1022.75
2017-05-17T06:19:52.457Z,1022.73
2017-05-17T06:20:52.496Z,1022.75
2017-05-17T06:21:52.534Z,1022.7
2017-05-17T06:22:52.572Z,1022.75
2017-05-17T06:23:52.612Z,1022.72
2017-05-17T06:24:52.649Z,1022.72
2017-05-17T06:25:52.688Z,1022.7
2017-05-17T06:26:52.726Z,1022.62
2017-05-17T06:27:52.764Z,1022.74
2017-05-17T06:28:52.803Z,1022.82
2017-05-17T06:29:52.843Z,1022.76
2017-05-17T06:30:52.880Z,1022.78
2017-05-17T06:31:52.919Z,1022.69
2017-05-17T06:32:52.959Z,1022.69
2017-05-17T06:33:52.996Z,1022.8
2017-05-17T06:35:53.074Z,1022.85
2017-05-17T06:36:53.112Z,1022.94
2017-05-17T06:37:53.152Z,1022.98
2017-05-17T06:38:53.190Z,1022.96
2017-05-17T06:39:53.230Z,1023.07
2017-05-17T06:40:53.269Z,1023.08
2017-05-17T06:41:53.307Z,1023.13
2017-05-17T06:42:53.346Z,1023.1
2017-05-17T06:43:53.385Z,1023.18
2017-05-17T06:44:53.424Z,1023.26
2017-05-17T06:45:53.463Z,1023.26
2017-05-17T06:46:53.503Z,1023.22
2017-05-17T06:47:53.547Z,1023.34
2017-05-17T06:48:53.581Z,1023.38
2017-05-17T06:49:53.620Z,1023.34
2017-05-17T06:51:53.699Z,1023.35
2017-05-17T06:52:53.740Z,1023.38
2017-05-17T06:53:53.777Z,1023.47
2017-05-17T06:54:53.817Z,1023.48
2017-05-17T06:55:53.855Z,1023.5
2017-05-17T06:56:53.895Z,1023.55
2017-05-17T06:57:53.934Z,1023.58
2017-05-17T06:58:53.973Z,1023.59
2017-05-17T06:59:54.076Z,1023.64
2017-05-17T07:00:54.060Z,1023.67
2017-05-17T07:01:54.103Z,1023.61
2017-05-17T07:02:54.130Z,1023.64
2017-05-17T07:03:54.168Z,1023.66
2017-05-17T07:04:54.208Z,1023.54
2017-05-17T07:05:54.247Z,1023.61
2017-05-17T07:07:54.325Z,1023.61
2017-05-17T07:08:54.364Z,1023.55
2017-05-17T07:09:54.404Z,1023.54
2017-05-17T07:10:54.443Z,1023.42
2017-05-17T07:11:54.482Z,1023.44
2017-05-17T07:12:54.522Z,1023.45
2017-05-17T07:13:54.561Z,1023.43
2017-05-17T07:14:54.600Z,1023.34
2017-05-17T07:15:54.640Z,1023.32
2017-05-17T07:16:54.680Z,1023.35
2017-05-17T07:17:54.723Z,1023.21
2017-05-17T07:18:54.757Z,1023.2
2017-05-17T07:19:54.798Z,1023.15
2017-05-17T07:20:54.837Z,1023.1
2017-05-17T07:21:54.876Z,1023.12
2017-05-17T07:23:54.955Z,1023.08
2017-05-17T07:24:54.995Z,1023
2017-05-17T07:25:55.035Z,1022.93
2017-05-17T07:26:55.074Z,1022.83
2017-05-17T07:27:55.137Z,1022.78
2017-05-17T07:28:55.153Z,1022.8
2017-05-17T07:29:55.192Z,1022.74
2017-05-17T07:30:55.231Z,1022.65
2017-05-17T07:31:55.321Z,1022.59
2017-05-17T07:32:55.310Z,1022.63
2017-05-17T07:33:55.350Z,1022.56
2017-05-17T07:34:55.388Z,1022.45
2017-05-17T07:35:55.428Z,1022.42
2017-05-17T07:36:55.469Z,1022.43
2017-05-17T07:38:55.547Z,1022.31
2017-05-17T07:39:55.585Z,1022.31
2017-05-17T07:40:55.624Z,1022.25
2017-05-17T07:41:55.664Z,1022.25
2017-05-17T07:42:55.703Z,1022.21
2017-05-17T07:43:55.741Z,1022.1
2017-05-17T07:44:55.780Z,1021.96
2017-05-17T07:45:55.819Z,1021.95
2017-05-17T07:46:55.858Z,1021.9
2017-05-17T07:47:55.896Z,1021.9
2017-05-17T07:48:55.936Z,1021.86
2017-05-17T07:49:55.975Z,1021.82
2017-05-17T07:50:56.013Z,1021.84
2017-05-17T07:51:56.051Z,1021.84
2017-05-17T07:52:56.092Z,1021.85
2017-05-17T07:53:56.131Z,1021.81
2017-05-17T07:54:56.168Z,1021.85
2017-05-17T07:55:56.208Z,1021.8
2017-05-17T07:56:56.247Z,1021.76
2017-05-17T07:57:56.285Z,1021.76
2017-05-17T07:58:56.331Z,1021.75
2017-05-17T07:59:56.363Z,1021.74
2017-05-17T08:00:56.401Z,1021.71
2017-05-17T08:01:56.439Z,1021.68
2017-05-17T08:02:56.478Z,1021.69
2017-05-17T08:03:56.517Z,1021.7
2017-05-17T08:04:56.556Z,1021.66
2017-05-17T08:05:56.593Z,1021.69
2017-05-17T08:06:56.632Z,1021.71
2017-05-17T08:07:56.671Z,1021.78
2017-05-17T08:08:56.709Z,1021.76
2017-05-17T08:10:56.786Z,1021.7
2017-05-17T08:11:56.825Z,1021.76
2017-05-17T08:12:56.863Z,1021.75
2017-05-17T08:13:56.901Z,1021.79
2017-05-17T08:14:56.940Z,1021.73
2017-05-17T08:15:56.978Z,1021.7
2017-05-17T08:16:57.016Z,1021.64
2017-05-17T08:17:57.055Z,1021.65
2017-05-17T08:18:57.094Z,1021.6
2017-05-17T08:19:57.131Z,1021.55
2017-05-17T08:20:57.170Z,1021.56
2017-05-17T08:21:57.208Z,1021.57
2017-05-17T08:22:57.247Z,1021.61
2017-05-17T08:23:57.284Z,1021.63
2017-05-17T08:24:57.323Z,1021.76
2017-05-17T08:26:57.400Z,1021.74
2017-05-17T08:27:57.438Z,1021.66
2017-05-17T08:28:57.475Z,1021.61
2017-05-17T08:29:57.513Z,1021.57
2017-05-17T08:30:57.551Z,1021.56
2017-05-17T08:31:57.589Z,1021.57
2017-05-17T08:32:57.627Z,1021.53
2017-05-17T08:33:57.665Z,1021.54
2017-05-17T08:34:57.702Z,1021.55
2017-05-17T08:35:57.740Z,1021.49
2017-05-17T08:36:57.778Z,1021.49
2017-05-17T08:37:57.816Z,1021.48
2017-05-17T08:38:57.854Z,1021.48
2017-05-17T08:39:57.892Z,1021.45
2017-05-17T08:40:57.929Z,1021.43
2017-05-17T08:42:58.005Z,1021.39
2017-05-17T08:43:58.042Z,1021.33
2017-05-17T08:44:58.081Z,1021.31
2017-05-17T08:45:58.117Z,1021.19
2017-05-17T08:46:58.154Z,1021.13
2017-05-17T08:47:58.193Z,1021.11
2017-05-17T08:48:58.231Z,1021.08
2017-05-17T08:49:58.268Z,1021.09
2017-05-17T08:50:58.306Z,1021.08
2017-05-17T08:51:58.343Z,1021.03
2017-05-17T08:52:58.382Z,1021.02
2017-05-17T08:53:58.419Z,1020.97
2017-05-17T08:54:58.458Z,1020.99
2017-05-17T08:55:58.495Z,1020.94
2017-05-17T08:56:58.531Z,1020.91
2017-05-17T08:58:58.607Z,1020.89
2017-05-17T08:59:58.645Z,1020.86
2017-05-17T09:00:58.681Z,1020.87
2017-05-17T09:01:58.719Z,1020.83
2017-05-17T09:02:58.757Z,1020.83
2017-05-17T09:03:58.844Z,1020.84
2017-05-17T09:04:58.832Z,1020.79
2017-05-17T09:05:58.869Z,1020.8
2017-05-17T09:06:58.907Z,1020.81
2017-05-17T09:07:58.945Z,1020.79
2017-05-17T09:08:58.980Z,1020.71
2017-05-17T09:09:59.019Z,1020.76
2017-05-17T09:10:59.056Z,1020.68
2017-05-17T09:11:59.093Z,1020.68
2017-05-17T09:13:59.168Z,1020.63
2017-05-17T09:14:59.205Z,1020.6
2017-05-17T09:15:59.242Z,1020.59
2017-05-17T09:16:59.279Z,1020.58
2017-05-17T09:17:59.316Z,1020.54
2017-05-17T09:18:59.354Z,1020.53
2017-05-17T09:19:59.390Z,1020.56
2017-05-17T09:20:59.426Z,1020.52
2017-05-17T09:21:59.462Z,1020.53
2017-05-17T09:22:59.500Z,1020.49
2017-05-17T09:23:59.537Z,1020.48
2017-05-17T09:24:59.574Z,1020.48
2017-05-17T09:25:59.610Z,1020.49
2017-05-17T09:26:59.647Z,1020.41
2017-05-17T09:27:59.684Z,1020.42
2017-05-17T09:28:59.721Z,1020.43
2017-05-17T09:29:59.757Z,1020.39
2017-05-17T09:30:59.794Z,1020.37
2017-05-17T09:31:59.831Z,1020.34
2017-05-17T09:32:59.867Z,1020.35
2017-05-17T09:33:59.904Z,1020.37
2017-05-17T09:34:59.941Z,1020.31
2017-05-17T09:35:59.978Z,1020.29
2017-05-17T09:37:00.013Z,1020.25
2017-05-17T09:38:00.051Z,1020.3
2017-05-17T09:39:00.088Z,1020.29
2017-05-17T09:40:00.124Z,1020.27
2017-05-17T09:41:00.160Z,1020.25
2017-05-17T09:42:00.196Z,1020.23
2017-05-17T09:43:00.233Z,1020.21
2017-05-17T09:44:00.268Z,1020.21
2017-05-17T09:46:00.341Z,1020.2
2017-05-17T09:47:00.377Z,1020.19
2017-05-17T09:48:00.413Z,1020.22
2017-05-17T09:49:00.449Z,1020.22
2017-05-17T09:50:00.485Z,1020.23
2017-05-17T09:51:00.521Z,1020.21
2017-05-17T09:52:00.557Z,1020.2
2017-05-17T09:53:00.620Z,1020.2
2017-05-17T09:54:00.629Z,1020.12
2017-05-17T09:55:00.664Z,1020.13
2017-05-17T09:56:00.701Z,1020.16
2017-05-17T09:57:00.736Z,1020.12
2017-05-17T09:58:00.773Z,1020.09
2017-05-17T09:59:00.807Z,1020.1
2017-05-17T10:00:00.844Z,1020.08
2017-05-17T10:02:00.915Z,1020.1
2017-05-17T10:03:00.950Z,1020.07
2017-05-17T10:04:00.986Z,1020.04
2017-05-17T10:05:01.021Z,1020.03
2017-05-17T10:06:01.057Z,1020.06
2017-05-17T10:07:01.093Z,1020.07
2017-05-17T10:08:01.129Z,1020.08
2017-05-17T10:09:01.164Z,1020.04
2017-05-17T10:10:01.199Z,1020.06
2017-05-17T10:11:01.234Z,1020.07
2017-05-17T10:12:01.313Z,1019.98
2017-05-17T10:13:01.305Z,1019.94
2017-05-17T10:14:01.342Z,1019.94
2017-05-17T10:15:01.376Z,1019.9
2017-05-17T10:16:01.411Z,1019.92
2017-05-17T10:18:01.481Z,1019.87
2017-05-17T10:19:01.516Z,1019.84
2017-05-17T10:20:01.552Z,1019.88
2017-05-17T10:21:01.586Z,1019.87
2017-05-17T10:22:01.622Z,1019.88
2017-05-17T10:23:01.657Z,1019.89
2017-05-17T10:24:01.693Z,1019.83
2017-05-17T10:25:01.727Z,1019.85
2017-05-17T10:26:01.762Z,1019.85
2017-05-17T10:27:01.798Z,1019.85
2017-05-17T10:28:01.832Z,1019.81
2017-05-17T10:29:01.868Z,1019.83
2017-05-17T10:30:01.903Z,1019.84
2017-05-17T10:31:01.938Z,1019.77
2017-05-17T10:32:01.972Z,1019.77
2017-05-17T10:34:02.041Z,1019.73
2017-05-17T10:35:02.078Z,1019.75
2017-05-17T10:36:02.112Z,1019.75
2017-05-17T10:37:02.147Z,1019.7
2017-05-17T10:38:02.182Z,1019.71
2017-05-17T10:39:02.216Z,1019.69
2017-05-17T10:40:02.251Z,1019.66
2017-05-17T10:41:02.285Z,1019.68
2017-05-17T10:42:02.320Z,1019.62
2017-05-17T10:43:02.355Z,1019.58
2017-05-17T10:44:02.390Z,1019.6
2017-05-17T10:45:02.425Z,1019.58
2017-05-17T10:46:02.460Z,1019.6
2017-05-17T10:47:02.493Z,1019.58
2017-05-17T10:49:02.564Z,1019.55
2017-05-17T10:50:02.598Z,1019.49
2017-05-17T10:51:02.631Z,1019.53
2017-05-17T10:52:02.666Z,1019.48
2017-05-17T10:53:02.701Z,1019.51
2017-05-17T10:54:02.733Z,1019.51
2017-05-17T10:55:02.769Z,1019.47
2017-05-17T10:56:02.803Z,1019.46
2017-05-17T10:57:02.836Z,1019.42
2017-05-17T10:58:02.870Z,1019.38
2017-05-17T10:59:02.905Z,1019.37
2017-05-17T11:00:02.938Z,1019.32
2017-05-17T11:01:02.972Z,1019.32
2017-05-17T11:02:03.006Z,1019.32
2017-05-17T11:03:03.040Z,1019.34
2017-05-17T11:04:03.074Z,1019.3
2017-05-17T11:05:03.107Z,1019.31
2017-05-17T11:06:03.140Z,1019.29
2017-05-17T11:07:03.174Z,1019.25
2017-05-17T11:08:03.207Z,1019.3
2017-05-17T11:09:03.240Z,1019.26
2017-05-17T11:10:03.274Z,1019.25
2017-05-17T11:11:03.308Z,1019.24
2017-05-17T11:12:03.339Z,1019.22
2017-05-17T11:13:03.373Z,1019.18
2017-05-17T11:14:03.407Z,1019.17
2017-05-17T11:15:03.439Z,1019.16
2017-05-17T11:16:03.473Z,1019.12
2017-05-17T11:17:03.506Z,1019.14
2017-05-17T11:18:03.539Z,1019.12
2017-05-17T11:19:03.572Z,1019.12
2017-05-17T11:21:03.638Z,1019.07
2017-05-17T11:22:03.671Z,1019.12
2017-05-17T11:23:03.704Z,1019.07
2017-05-17T11:24:03.737Z,1019.07
2017-05-17T11:25:03.769Z,1019.06
2017-05-17T11:26:03.802Z,1019.06
2017-05-17T11:27:03.834Z,1019.03
2017-05-17T11:28:03.867Z,1019.07
2017-05-17T11:29:03.901Z,1019.03
2017-05-17T11:30:03.932Z,1019.03
2017-05-17T11:31:03.965Z,1018.98
2017-05-17T11:32:03.998Z,1018.97
2017-05-17T11:33:04.031Z,1018.95
2017-05-17T11:34:04.062Z,1019
2017-05-17T11:35:04.095Z,1019
2017-05-17T11:37:04.161Z,1018.91
2017-05-17T11:38:04.193Z,1018.89
2017-05-17T11:39:04.225Z,1018.82
2017-05-17T11:40:04.260Z,1018.87
2017-05-17T11:41:04.290Z,1018.89
2017-05-17T11:42:04.320Z,1018.87
2017-05-17T11:43:04.354Z,1018.87
2017-05-17T11:44:04.387Z,1018.86
2017-05-17T11:45:04.417Z,1018.82
2017-05-17T11:46:04.450Z,1018.75
2017-05-17T11:47:04.482Z,1018.85
2017-05-17T11:48:04.514Z,1018.81
2017-05-17T11:49:04.546Z,1018.81
2017-05-17T11:50:04.578Z,1018.81
2017-05-17T11:51:04.611Z,1018.81
2017-05-17T11:53:04.674Z,1018.77
2017-05-17T11:54:04.705Z,1018.76
2017-05-17T11:55:04.738Z,1018.77
2017-05-17T11:56:04.770Z,1018.75
2017-05-17T11:57:04.802Z,1018.7
2017-05-17T11:58:04.835Z,1018.74
2017-05-17T11:59:04.867Z,1018.73
2017-05-17T12:00:04.899Z,1018.7
2017-05-17T12:01:04.930Z,1018.68
2017-05-17T12:02:04.962Z,1018.64
2017-05-17T12:03:04.993Z,1018.67
2017-05-17T12:04:05.025Z,1018.65
2017-05-17T12:05:05.058Z,1018.64
2017-05-17T12:06:05.091Z,1018.57
2017-05-17T12:07:05.121Z,1018.65
2017-05-17T12:09:05.185Z,1018.52
2017-05-17T12:10:05.217Z,1018.54
2017-05-17T12:11:05.248Z,1018.51
2017-05-17T12:12:05.280Z,1018.52
2017-05-17T12:13:05.312Z,1018.55
2017-05-17T12:14:05.342Z,1018.52
2017-05-17T12:15:05.373Z,1018.52
2017-05-17T12:16:05.405Z,1018.51
2017-05-17T12:17:05.438Z,1018.48
2017-05-17T12:18:05.468Z,1018.44
2017-05-17T12:19:05.501Z,1018.41
2017-05-17T12:20:05.532Z,1018.42
2017-05-17T12:21:05.564Z,1018.44
2017-05-17T12:22:05.596Z,1018.42
2017-05-17T12:24:05.660Z,1018.42
2017-05-17T12:25:05.690Z,1018.4
2017-05-17T12:26:05.722Z,1018.37
2017-05-17T12:27:05.754Z,1018.38
2017-05-17T12:28:05.786Z,1018.4
2017-05-17T12:29:05.817Z,1018.34
2017-05-17T12:30:05.862Z,1018.35
2017-05-17T12:31:05.880Z,1018.32
2017-05-17T12:32:05.911Z,1018.31
2017-05-17T12:33:05.943Z,1018.32
2017-05-17T12:34:05.974Z,1018.26
2017-05-17T12:35:06.005Z,1018.27
2017-05-17T12:36:06.037Z,1018.25
2017-05-17T12:37:06.068Z,1018.21
2017-05-17T12:38:06.099Z,1018.18
2017-05-17T12:39:06.132Z,1018.2
2017-05-17T12:40:06.163Z,1018.13
2017-05-17T12:41:06.193Z,1018.18
2017-05-17T12:42:06.226Z,1018.19
2017-05-17T12:43:06.257Z,1018.18
2017-05-17T12:44:06.288Z,1018.15
2017-05-17T12:45:06.323Z,1018.17
2017-05-17T12:46:06.352Z,1018.13
2017-05-17T12:47:06.382Z,1018.09
2017-05-17T12:48:06.415Z,1018.06
2017-05-17T12:49:06.447Z,1018.1